Time;durP1;ratioP1;P1;durP2;ratioP2;P2;SDS_P1;SDS_P2;PMS_P1;PMS_P2;Temp;Humidity;BMP_temperature;BMP_pressure;BME280_temperature;BME280_humidity;BME280_pressure;Samples;Min_cycle;Max_cycle;Signal;HPM_P1;HPM_P2
2021/12/30 00:00:54;;;;;;;55.53;19.67;;;10.60;99.90;;;;;;5094468;28;20028;-72
2021/12/30 00:03:19;;;;;;;55.03;18.77;;;10.70;99.90;;;;;;5110112;28;20468;-71
2021/12/30 00:05:45;;;;;;;58.42;19.38;;;10.60;99.90;;;;;;5110245;28;20098;-72
2021/12/30 00:08:12;;;;;;;57.77;21.43;;;10.60;99.90;;;;;;5109788;28;20360;-71
2021/12/30 00:10:38;;;;;;;55.53;18.50;;;10.60;99.90;;;;;;5094422;28;20419;-72
2021/12/30 00:13:04;;;;;;;59.95;20.23;;;10.60;99.90;;;;;;5093026;28;20028;-72
2021/12/30 00:15:30;;;;;;;51.47;20.43;;;10.60;99.90;;;;;;5094114;28;20031;-72
2021/12/30 00:17:56;;;;;;;60.93;21.73;;;10.50;99.90;;;;;;5093916;28;20505;-72
2021/12/30 00:20:22;;;;;;;56.13;19.65;;;10.50;99.90;;;;;;5110199;28;20413;-72
2021/12/30 00:22:48;;;;;;;62.03;21.75;;;10.60;99.90;;;;;;5093945;28;20028;-72
2021/12/30 00:25:15;;;;;;;44.97;19.23;;;10.60;99.90;;;;;;5109523;28;20024;-71
2021/12/30 00:27:41;;;;;;;55.20;20.80;;;10.70;99.90;;;;;;5109819;28;20457;-72
2021/12/30 00:30:09;;;;;;;52.70;18.27;;;10.70;99.90;;;;;;5092590;28;20047;-72
2021/12/30 00:32:35;;;;;;;56.10;19.47;;;10.70;99.90;;;;;;5092631;28;20192;-72
2021/12/30 00:35:01;;;;;;;45.10;18.85;;;10.70;99.90;;;;;;5109623;28;20487;-72
2021/12/30 00:37:26;;;;;;;49.28;18.15;;;10.80;99.90;;;;;;5094213;28;20031;-72
2021/12/30 00:39:52;;;;;;;51.35;18.33;;;10.80;99.90;;;;;;5093500;28;20541;-72
2021/12/30 00:42:18;;;;;;;46.70;17.63;;;10.90;99.90;;;;;;5093658;28;20024;-71
2021/12/30 00:44:44;;;;;;;58.10;16.88;;;11.00;99.90;;;;;;5093455;28;20384;-72
2021/12/30 00:47:09;;;;;;;37.53;14.38;;;10.90;99.90;;;;;;5093632;28;20388;-72
2021/12/30 00:49:35;;;;;;;44.13;15.60;;;11.00;99.90;;;;;;5109095;28;20127;-72
2021/12/30 00:52:01;;;;;;;50.35;17.30;;;11.00;99.90;;;;;;5092351;28;20046;-72
2021/12/30 00:54:27;;;;;;;46.03;15.50;;;11.10;99.90;;;;;;5093178;28;20444;-71
2021/12/30 00:56:53;;;;;;;42.97;14.10;;;11.10;99.90;;;;;;5092249;28;20035;-72
2021/12/30 00:59:18;;;;;;;52.28;14.80;;;11.20;99.90;;;;;;5092296;28;20103;-72
2021/12/30 01:01:44;;;;;;;39.97;14.38;;;11.10;99.90;;;;;;5092369;28;20031;-72
2021/12/30 01:04:10;;;;;;;43.47;13.40;;;11.20;99.90;;;;;;5093496;28;20070;-72
2021/12/30 01:06:36;;;;;;;39.45;12.65;;;11.20;99.90;;;;;;5093599;28;20023;-72
2021/12/30 01:09:02;;;;;;;36.30;11.07;;;11.20;99.90;;;;;;5093216;28;20460;-72
2021/12/30 01:11:28;;;;;;;42.25;11.75;;;11.20;99.90;;;;;;5093431;28;20111;-72
2021/12/30 01:14:02;;;;;;;42.90;11.55;;;11.20;99.90;;;;;;5109100;28;20162;-72
2021/12/30 01:16:30;;;;;;;44.47;10.55;;;11.30;99.90;;;;;;5093696;28;20016;-72
2021/12/30 01:19:14;;;;;;;37.97;10.23;;;11.30;99.90;;;;;;5093136;28;20096;-72
2021/12/30 01:21:39;;;;;;;40.27;10.53;;;11.30;99.90;;;;;;5094318;28;20032;-72
2021/12/30 01:24:05;;;;;;;43.50;9.98;;;11.30;99.90;;;;;;5093309;28;20388;-72
2021/12/30 01:26:31;;;;;;;40.33;9.88;;;11.40;99.90;;;;;;5092257;28;20034;-72
2021/12/30 01:28:57;;;;;;;41.20;10.00;;;11.40;99.90;;;;;;5092013;28;20074;-72
2021/12/30 01:31:22;;;;;;;46.65;10.80;;;11.40;99.90;;;;;;5093111;28;20039;-72
2021/12/30 01:33:48;;;;;;;51.92;12.30;;;11.40;99.90;;;;;;5091696;28;20087;-72
2021/12/30 01:36:15;;;;;;;41.00;11.90;;;11.50;99.90;;;;;;5093306;28;20035;-72
2021/12/30 01:38:41;;;;;;;40.45;12.05;;;11.50;99.90;;;;;;5093186;28;20029;-72
2021/12/30 01:41:08;;;;;;;39.78;11.35;;;11.60;99.90;;;;;;5091697;28;20036;-73
2021/12/30 01:43:36;;;;;;;54.55;13.98;;;11.60;99.90;;;;;;5091954;28;20440;-72
2021/12/30 01:46:03;;;;;;;53.28;14.45;;;11.50;99.90;;;;;;5093212;28;20051;-72
2021/12/30 01:48:28;;;;;;;45.05;14.05;;;11.70;99.90;;;;;;5075468;28;20031;-72
2021/12/30 01:50:54;;;;;;;50.70;13.98;;;11.70;99.90;;;;;;5091739;28;20028;-73
2021/12/30 01:53:20;;;;;;;48.45;14.30;;;11.70;99.90;;;;;;5093521;28;20024;-72
2021/12/30 01:55:46;;;;;;;41.03;12.80;;;11.70;99.90;;;;;;5091870;28;20035;-72
2021/12/30 01:58:13;;;;;;;48.88;15.82;;;11.80;99.90;;;;;;5093293;28;20124;-72
2021/12/30 02:00:42;;;;;;;53.88;16.13;;;11.70;99.90;;;;;;5092930;28;20052;-72
2021/12/30 02:03:09;;;;;;;42.30;14.30;;;11.80;99.90;;;;;;5093087;28;20020;-72
2021/12/30 02:05:37;;;;;;;62.40;17.67;;;11.80;99.90;;;;;;5094226;28;20028;-72
2021/12/30 02:08:06;;;;;;;50.55;16.40;;;11.80;99.90;;;;;;5096190;28;20107;-71
2021/12/30 02:10:32;;;;;;;54.90;16.02;;;11.80;99.90;;;;;;5112018;28;20024;-73
2021/12/30 02:12:59;;;;;;;49.83;16.45;;;11.90;99.90;;;;;;5096535;28;20020;-70
2021/12/30 02:15:24;;;;;;;66.15;18.55;;;11.90;99.90;;;;;;5096763;28;20028;-70
2021/12/30 02:17:51;;;;;;;63.10;19.00;;;11.90;99.90;;;;;;5112092;28;20027;-71
2021/12/30 02:20:41;;;;;;;57.28;18.45;;;11.90;99.90;;;;;;5095138;28;20043;-72
2021/12/30 02:23:07;;;;;;;56.03;17.90;;;11.90;99.90;;;;;;5096051;28;20050;-72
2021/12/30 02:25:34;;;;;;;54.85;18.02;;;11.90;99.90;;;;;;5096013;28;20085;-72
2021/12/30 02:27:59;;;;;;;57.90;16.52;;;11.90;99.90;;;;;;5096084;28;20040;-70
2021/12/30 02:30:25;;;;;;;54.00;16.90;;;11.90;99.90;;;;;;5095735;28;20438;-72
2021/12/30 02:32:51;;;;;;;45.70;15.10;;;12.00;99.90;;;;;;5094836;28;20445;-72
2021/12/30 02:35:17;;;;;;;48.38;16.65;;;11.90;99.90;;;;;;5111777;28;20035;-70
2021/12/30 02:37:42;;;;;;;45.35;14.77;;;12.00;99.90;;;;;;5096193;28;20028;-73
2021/12/30 02:40:09;;;;;;;60.05;17.70;;;12.00;99.90;;;;;;5111984;28;20507;-72
2021/12/30 02:42:34;;;;;;;53.53;16.08;;;12.00;99.90;;;;;;5095899;28;20111;-72
2021/12/30 02:45:00;;;;;;;46.72;15.77;;;12.00;99.90;;;;;;5111544;28;20459;-73
2021/12/30 02:47:26;;;;;;;43.17;16.30;;;12.00;99.90;;;;;;5094733;28;20460;-76
2021/12/30 02:49:51;;;;;;;39.65;15.43;;;12.00;99.90;;;;;;5094903;28;20145;-76
2021/12/30 02:52:17;;;;;;;50.15;16.10;;;12.00;99.90;;;;;;5096059;28;20367;-76
2021/12/30 02:54:43;;;;;;;47.10;14.30;;;12.00;99.90;;;;;;5094450;28;20035;-76
2021/12/30 02:57:10;;;;;;;44.70;14.60;;;12.00;99.90;;;;;;5095723;28;20028;-76
2021/12/30 02:59:36;;;;;;;47.58;15.77;;;12.00;99.90;;;;;;5111113;28;20020;-76
2021/12/30 03:02:03;;;;;;;51.50;17.00;;;12.10;99.90;;;;;;5095745;28;20039;-76
2021/12/30 03:04:30;;;;;;;49.53;16.23;;;12.10;99.90;;;;;;5095352;28;20042;-76
2021/12/30 03:06:57;;;;;;;46.20;15.38;;;12.10;99.90;;;;;;5094288;28;20032;-72
2021/12/30 03:09:23;;;;;;;42.85;14.25;;;12.10;99.90;;;;;;5094571;28;20036;-72
2021/12/30 03:11:48;;;;;;;49.13;16.35;;;12.10;99.90;;;;;;5111119;28;20047;-72
2021/12/30 03:14:14;;;;;;;60.40;17.50;;;12.10;99.90;;;;;;5095251;28;20028;-72
2021/12/30 03:16:42;;;;;;;53.00;17.63;;;12.10;99.90;;;;;;5093666;28;20077;-72
2021/12/30 03:19:08;;;;;;;52.75;16.67;;;12.00;99.90;;;;;;5094501;28;20035;-72
2021/12/30 03:21:34;;;;;;;49.83;17.23;;;12.10;99.90;;;;;;5093956;28;20055;-72
2021/12/30 03:24:02;;;;;;;54.40;18.15;;;12.10;99.90;;;;;;5094844;28;20024;-72
2021/12/30 03:26:28;;;;;;;42.63;17.00;;;12.10;99.90;;;;;;5094649;28;20399;-72
2021/12/30 03:28:54;;;;;;;43.75;17.58;;;12.10;99.90;;;;;;5093842;28;20109;-72
2021/12/30 03:31:21;;;;;;;56.10;19.17;;;12.10;99.90;;;;;;5094949;28;20079;-72
2021/12/30 03:33:48;;;;;;;47.45;17.35;;;12.10;99.90;;;;;;5093511;28;20048;-72
2021/12/30 03:36:14;;;;;;;50.28;17.65;;;12.20;99.90;;;;;;5094767;28;20028;-72
2021/12/30 03:38:46;;;;;;;47.75;19.00;;;12.20;99.90;;;;;;5094787;28;20032;-73
2021/12/30 03:41:14;;;;;;;45.22;18.90;;;12.20;99.90;;;;;;5095036;28;20054;-73
2021/12/30 03:43:41;;;;;;;43.83;19.73;;;12.10;99.90;;;;;;5094840;28;20028;-73
2021/12/30 03:46:08;;;;;;;44.58;18.23;;;12.20;99.90;;;;;;5094698;28;20065;-72
2021/12/30 03:48:40;;;;;;;42.53;17.02;;;12.20;99.90;;;;;;5094346;28;20028;-72
2021/12/30 03:51:08;;;;;;;43.90;18.48;;;12.20;99.90;;;;;;5094575;28;20055;-72
2021/12/30 03:53:38;;;;;;;42.38;18.50;;;12.20;99.90;;;;;;5094363;28;20028;-72
2021/12/30 03:56:09;;;;;;;40.90;16.75;;;12.20;99.90;;;;;;5110275;28;20031;-72
2021/12/30 03:58:35;;;;;;;45.65;17.63;;;12.20;99.90;;;;;;5094610;28;20173;-72
2021/12/30 04:01:02;;;;;;;46.15;18.15;;;12.20;99.90;;;;;;5094384;28;20027;-72
2021/12/30 04:03:28;;;;;;;44.67;19.40;;;12.20;99.90;;;;;;5093239;28;20073;-72
2021/12/30 04:05:53;;;;;;;52.92;18.52;;;12.30;99.90;;;;;;5092805;28;20131;-72
2021/12/30 04:08:19;;;;;;;39.17;17.17;;;12.20;99.90;;;;;;5110186;28;20028;-73
2021/12/30 04:10:45;;;;;;;43.40;17.80;;;12.20;99.90;;;;;;5094433;28;20036;-73
2021/12/30 04:13:10;;;;;;;46.35;19.60;;;12.20;99.90;;;;;;5094501;28;20451;-72
2021/12/30 04:15:36;;;;;;;48.00;18.90;;;12.20;99.90;;;;;;5093114;28;20035;-72
2021/12/30 04:18:02;;;;;;;46.53;19.20;;;12.20;99.90;;;;;;5094194;28;20099;-72
2021/12/30 04:20:27;;;;;;;45.95;19.45;;;12.20;99.90;;;;;;5094081;28;20153;-72
2021/12/30 04:22:53;;;;;;;42.47;18.60;;;12.30;99.90;;;;;;5092904;28;20039;-73
2021/12/30 04:25:18;;;;;;;45.00;19.45;;;12.30;99.90;;;;;;5093740;28;20036;-72
2021/12/30 04:27:45;;;;;;;35.80;17.45;;;12.30;99.90;;;;;;5093214;28;20104;-72
2021/12/30 04:30:14;;;;;;;42.42;18.88;;;12.30;99.90;;;;;;5093654;28;20043;-72
2021/12/30 04:32:40;;;;;;;42.63;17.98;;;12.30;99.90;;;;;;5093773;28;20062;-72
2021/12/30 04:35:07;;;;;;;41.00;18.15;;;12.30;99.90;;;;;;5093693;28;20388;-72
2021/12/30 04:37:34;;;;;;;36.72;17.80;;;12.30;99.90;;;;;;5093539;28;20028;-72
2021/12/30 04:40:01;;;;;;;39.78;18.75;;;12.30;99.90;;;;;;5109560;28;20030;-72
2021/12/30 04:42:27;;;;;;;39.53;18.05;;;12.40;99.90;;;;;;5093676;28;20024;-73
2021/12/30 04:44:53;;;;;;;39.80;17.67;;;12.40;99.90;;;;;;5093863;28;20036;-73
2021/12/30 04:47:20;;;;;;;39.35;16.45;;;12.40;99.90;;;;;;5092503;28;20115;-73
2021/12/30 04:49:45;;;;;;;35.70;16.45;;;12.40;99.90;;;;;;5109261;28;20024;-72
2021/12/30 04:52:11;;;;;;;30.05;16.88;;;12.40;99.90;;;;;;5092501;28;20039;-72
2021/12/30 04:54:37;;;;;;;33.60;15.98;;;12.40;99.90;;;;;;5093614;28;20036;-72
2021/12/30 04:57:02;;;;;;;31.23;15.07;;;12.40;99.90;;;;;;5109574;28;20043;-72
2021/12/30 04:59:28;;;;;;;31.48;15.80;;;12.40;99.90;;;;;;5093716;28;20388;-72
2021/12/30 05:01:54;;;;;;;31.48;15.75;;;12.40;99.90;;;;;;5092241;28;20052;-72
2021/12/30 05:04:19;;;;;;;29.40;14.60;;;12.40;99.90;;;;;;5092247;28;20036;-73
2021/12/30 05:06:45;;;;;;;28.08;13.38;;;12.40;99.90;;;;;;5108854;28;20103;-72
2021/12/30 05:09:11;;;;;;;22.55;12.07;;;12.40;99.90;;;;;;5092642;28;20038;-73
2021/12/30 05:11:40;;;;;;;26.33;13.52;;;12.50;99.90;;;;;;5108956;28;20032;-73
2021/12/30 05:14:07;;;;;;;24.83;12.48;;;12.50;99.90;;;;;;5092307;28;20052;-73
2021/12/30 05:16:32;;;;;;;21.20;12.80;;;12.50;99.90;;;;;;5093638;28;20028;-72
2021/12/30 05:18:58;;;;;;;24.80;13.32;;;12.50;99.90;;;;;;5109064;28;20032;-72
2021/12/30 05:21:24;;;;;;;24.20;12.13;;;12.50;99.90;;;;;;5093649;28;20060;-72
2021/12/30 05:23:50;;;;;;;20.60;11.10;;;12.50;99.90;;;;;;5093561;28;20056;-72
2021/12/30 05:26:16;;;;;;;23.15;11.80;;;12.50;99.90;;;;;;5092241;28;20059;-73
2021/12/30 05:28:43;;;;;;;22.98;11.68;;;12.50;99.90;;;;;;5093092;28;20462;-73
2021/12/30 05:31:08;;;;;;;21.20;11.15;;;12.50;99.90;;;;;;5095053;28;20036;-72
2021/12/30 05:33:34;;;;;;;20.05;10.27;;;12.50;99.90;;;;;;5091067;28;20044;-73
2021/12/30 05:36:00;;;;;;;19.38;9.82;;;12.50;99.90;;;;;;5092347;28;20375;-72
2021/12/30 05:38:26;;;;;;;18.48;9.07;;;12.50;99.90;;;;;;5092847;28;20056;-72
2021/12/30 05:40:52;;;;;;;18.63;9.18;;;12.60;99.90;;;;;;5097063;28;20070;-73
2021/12/30 05:43:18;;;;;;;18.33;8.73;;;12.60;99.90;;;;;;5095782;28;20495;-73
2021/12/30 05:45:43;;;;;;;18.23;8.80;;;12.60;99.90;;;;;;5096364;28;20032;-73
2021/12/30 05:48:09;;;;;;;15.45;7.53;;;12.50;99.90;;;;;;5097397;28;20683;-73
2021/12/30 05:50:36;;;;;;;14.23;7.97;;;12.60;99.90;;;;;;5095516;28;20031;-73
2021/12/30 05:53:02;;;;;;;14.50;7.57;;;12.60;99.90;;;;;;5095812;28;20028;-73
2021/12/30 05:55:31;;;;;;;16.15;8.77;;;12.60;99.90;;;;;;5096893;28;20032;-78
2021/12/30 05:57:57;;;;;;;18.77;8.75;;;12.60;99.90;;;;;;5096768;28;20492;-77
2021/12/30 06:00:26;;;;;;;19.17;10.65;;;12.60;99.90;;;;;;5096498;28;20110;-77
2021/12/30 06:02:52;;;;;;;19.33;11.60;;;12.60;99.90;;;;;;5096565;28;20043;-77
2021/12/30 06:05:18;;;;;;;22.55;14.23;;;12.60;99.90;;;;;;5096454;28;20450;-76
2021/12/30 06:07:44;;;;;;;22.15;14.05;;;12.60;99.90;;;;;;5095114;28;20470;-76
2021/12/30 06:10:10;;;;;;;25.05;16.58;;;12.60;99.90;;;;;;5096460;28;20410;-77
2021/12/30 06:12:36;;;;;;;29.02;16.75;;;12.70;99.90;;;;;;5095168;28;20028;-78
2021/12/30 06:15:03;;;;;;;25.17;18.60;;;12.70;99.90;;;;;;5096586;28;20024;-77
2021/12/30 06:17:28;;;;;;;26.90;20.05;;;12.70;99.90;;;;;;5096615;28;20020;-77
2021/12/30 06:19:54;;;;;;;31.50;21.52;;;12.70;99.90;;;;;;5095177;28;20040;-77
2021/12/30 06:22:20;;;;;;;27.90;21.27;;;12.70;99.90;;;;;;5096228;28;20028;-76
2021/12/30 06:24:45;;;;;;;35.97;21.35;;;12.70;99.90;;;;;;5078306;28;20528;-76
2021/12/30 06:27:11;;;;;;;32.30;22.60;;;12.70;99.90;;;;;;5094738;28;20143;-79
2021/12/30 06:29:38;;;;;;;35.15;23.55;;;12.70;99.90;;;;;;5094901;28;20036;-76
2021/12/30 06:32:05;;;;;;;32.78;22.13;;;12.80;99.90;;;;;;5094853;28;20081;-76
2021/12/30 06:34:31;;;;;;;34.50;22.98;;;12.80;99.90;;;;;;5106662;28;20047;-76
2021/12/30 06:36:56;;;;;;;36.72;24.55;;;12.80;99.90;;;;;;5116298;28;20442;-76
2021/12/30 06:39:22;;;;;;;38.35;24.77;;;12.80;99.90;;;;;;5115156;28;20054;-76
2021/12/30 06:41:48;;;;;;;39.63;23.40;;;12.80;99.90;;;;;;5115186;28;20038;-76
2021/12/30 06:44:14;;;;;;;33.53;22.45;;;12.80;99.90;;;;;;5114952;28;20092;-79
2021/12/30 06:46:46;;;;;;;28.30;18.55;;;12.80;99.90;;;;;;5100183;28;20491;-78
2021/12/30 06:49:11;;;;;;;21.05;14.70;;;12.90;99.90;;;;;;5098994;28;20028;-75
2021/12/30 06:51:37;;;;;;;18.50;11.85;;;12.90;99.90;;;;;;5093608;28;20123;-74
2021/12/30 06:54:04;;;;;;;17.17;10.65;;;12.90;99.90;;;;;;5084855;28;20028;-73
2021/12/30 06:56:30;;;;;;;18.83;10.10;;;12.90;99.90;;;;;;5116430;27;20031;-75
2021/12/30 06:58:56;;;;;;;13.63;9.65;;;12.90;99.90;;;;;;5105709;28;20487;-77
2021/12/30 07:01:21;;;;;;;13.48;8.88;;;12.90;99.90;;;;;;5077578;28;20032;-74
2021/12/30 07:03:47;;;;;;;13.57;9.00;;;12.90;99.90;;;;;;5104862;28;20036;-74
2021/12/30 07:06:16;;;;;;;16.98;8.10;;;12.90;99.90;;;;;;5097649;28;20032;-77
2021/12/30 07:08:41;;;;;;;12.13;8.50;;;12.90;99.90;;;;;;5097301;28;20031;-74
2021/12/30 07:11:07;;;;;;;12.00;7.55;;;13.00;99.90;;;;;;5114065;28;20039;-74
2021/12/30 07:13:33;;;;;;;13.23;7.85;;;13.00;99.90;;;;;;5114431;28;20092;-74
2021/12/30 07:15:59;;;;;;;11.75;7.47;;;13.00;99.90;;;;;;5091148;28;20019;-75
2021/12/30 07:18:25;;;;;;;14.13;8.38;;;13.00;99.90;;;;;;5113572;28;20308;-74
2021/12/30 07:20:50;;;;;;;14.27;8.77;;;13.00;99.90;;;;;;5085831;28;20028;-74
2021/12/30 07:23:16;;;;;;;14.13;9.55;;;13.00;99.90;;;;;;5100759;28;20024;-74
2021/12/30 07:25:41;;;;;;;15.18;9.02;;;13.00;99.90;;;;;;5111337;28;20062;-73
2021/12/30 07:28:07;;;;;;;15.88;10.32;;;13.00;99.90;;;;;;5100832;28;20093;-72
2021/12/30 07:30:33;;;;;;;16.67;10.18;;;13.00;99.90;;;;;;5093377;28;20032;-74
2021/12/30 07:32:59;;;;;;;17.08;11.05;;;13.00;99.90;;;;;;5107642;28;20093;-73
2021/12/30 07:35:26;;;;;;;17.40;10.95;;;13.00;99.90;;;;;;5113492;28;20039;-75
2021/12/30 07:37:51;;;;;;;20.20;11.32;;;13.00;99.90;;;;;;5113657;28;20019;-76
2021/12/30 07:40:18;;;;;;;19.40;11.70;;;13.00;99.90;;;;;;5112853;28;20028;-74
2021/12/30 07:42:44;;;;;;;20.90;12.65;;;13.00;99.90;;;;;;5112689;28;20081;-74
2021/12/30 07:45:11;;;;;;;20.08;13.25;;;13.00;99.90;;;;;;5109906;28;20043;-74
2021/12/30 07:47:40;;;;;;;25.10;14.63;;;13.10;99.90;;;;;;5097260;28;20139;-74
2021/12/30 07:50:07;;;;;;;19.88;14.40;;;13.10;99.90;;;;;;5110210;28;20047;-76
2021/12/30 07:52:34;;;;;;;27.10;15.77;;;13.10;99.90;;;;;;5110509;28;20016;-77
2021/12/30 07:55:00;;;;;;;25.88;15.70;;;13.10;99.90;;;;;;5111646;28;20115;-76
2021/12/30 07:57:26;;;;;;;29.70;18.17;;;13.10;99.90;;;;;;5109233;28;20115;-77
2021/12/30 07:59:53;;;;;;;29.00;18.38;;;13.10;99.90;;;;;;5107810;28;20020;-75
2021/12/30 08:02:19;;;;;;;29.42;17.90;;;13.20;99.90;;;;;;5113305;28;20028;-75
2021/12/30 08:04:45;;;;;;;25.35;16.10;;;13.20;99.90;;;;;;5112975;28;20137;-74
2021/12/30 08:07:11;;;;;;;24.98;15.45;;;13.20;99.90;;;;;;5096274;28;20503;-73
2021/12/30 08:09:36;;;;;;;23.52;13.77;;;13.20;99.90;;;;;;5112339;28;20387;-74
2021/12/30 08:12:03;;;;;;;21.50;12.90;;;13.20;99.90;;;;;;5112839;28;20119;-76
2021/12/30 08:14:28;;;;;;;19.02;11.63;;;13.30;99.90;;;;;;5113660;28;20020;-76
2021/12/30 08:16:54;;;;;;;18.58;10.63;;;13.30;99.90;;;;;;5095506;28;20424;-76
2021/12/30 08:19:20;;;;;;;15.63;9.70;;;13.30;99.90;;;;;;5113444;28;20028;-73
2021/12/30 08:21:46;;;;;;;15.43;9.52;;;13.50;99.90;;;;;;5113757;28;20035;-74
2021/12/30 08:24:12;;;;;;;17.30;9.63;;;13.50;99.90;;;;;;5113790;28;20050;-74
2021/12/30 08:26:39;;;;;;;15.55;8.45;;;13.50;99.90;;;;;;5113435;28;20015;-74
2021/12/30 08:29:06;;;;;;;14.52;8.65;;;13.50;99.90;;;;;;5112760;28;20040;-75
2021/12/30 08:31:36;;;;;;;15.32;8.88;;;13.50;99.90;;;;;;5113943;28;20023;-79
2021/12/30 08:34:04;;;;;;;17.40;9.60;;;13.60;99.90;;;;;;5112843;28;20478;-75
2021/12/30 08:36:30;;;;;;;13.25;7.25;;;13.60;99.90;;;;;;5112661;28;20479;-77
2021/12/30 08:38:56;;;;;;;11.63;7.93;;;13.70;99.90;;;;;;5114234;28;20432;-75
2021/12/30 08:41:22;;;;;;;14.10;7.20;;;13.70;99.90;;;;;;5114115;28;20055;-74
2021/12/30 08:43:48;;;;;;;11.85;7.68;;;13.70;99.90;;;;;;5112988;28;20062;-74
2021/12/30 08:46:14;;;;;;;12.80;6.90;;;13.70;99.90;;;;;;5095903;28;20031;-76
2021/12/30 08:48:40;;;;;;;9.75;7.18;;;13.70;99.90;;;;;;5112679;28;20027;-74
2021/12/30 08:51:06;;;;;;;12.00;6.80;;;13.70;99.90;;;;;;5113057;28;20375;-74
2021/12/30 08:53:32;;;;;;;12.65;7.55;;;13.80;99.90;;;;;;5095054;28;20024;-74
2021/12/30 08:55:57;;;;;;;11.80;6.97;;;13.80;99.90;;;;;;5114061;28;20102;-77
2021/12/30 08:58:23;;;;;;;10.93;6.68;;;13.70;99.90;;;;;;5095675;28;20424;-75
2021/12/30 09:00:49;;;;;;;14.65;7.40;;;13.80;99.90;;;;;;5112405;28;20054;-74
2021/12/30 09:03:16;;;;;;;14.95;7.75;;;13.80;99.90;;;;;;5114400;28;20546;-74
2021/12/30 09:05:43;;;;;;;12.00;7.47;;;13.80;99.90;;;;;;5113784;28;20038;-75
2021/12/30 09:08:09;;;;;;;12.73;7.22;;;13.80;99.90;;;;;;5112472;28;20063;-74
2021/12/30 09:10:40;;;;;;;15.48;7.38;;;13.90;99.90;;;;;;5113595;28;20165;-74
2021/12/30 09:13:08;;;;;;;12.65;6.72;;;13.90;99.90;;;;;;5112949;28;20024;-75
2021/12/30 09:15:34;;;;;;;12.30;5.50;;;13.90;99.90;;;;;;5115684;28;20050;-74
2021/12/30 09:18:00;;;;;;;13.52;6.97;;;13.90;99.90;;;;;;5117753;28;20062;-75
2021/12/30 09:20:25;;;;;;;11.95;6.22;;;14.00;99.90;;;;;;5116295;28;20080;-74
2021/12/30 09:22:53;;;;;;;13.57;5.95;;;14.00;99.90;;;;;;5118200;28;20472;-74
2021/12/30 09:25:22;;;;;;;14.23;6.20;;;14.00;99.90;;;;;;5116741;28;20483;-74
2021/12/30 09:27:48;;;;;;;11.15;5.15;;;14.00;99.90;;;;;;5117818;28;20117;-74
2021/12/30 09:30:15;;;;;;;12.75;4.82;;;14.00;99.90;;;;;;5117625;28;20042;-74
2021/12/30 09:32:42;;;;;;;9.73;4.82;;;14.00;99.90;;;;;;5116330;28;20027;-74
2021/12/30 09:35:09;;;;;;;8.00;4.28;;;14.10;99.90;;;;;;5116320;28;20027;-74
2021/12/30 09:37:35;;;;;;;12.35;3.97;;;14.10;99.90;;;;;;5117484;28;20494;-74
2021/12/30 09:40:02;;;;;;;12.02;4.20;;;14.10;99.90;;;;;;5116195;28;20024;-74
2021/12/30 09:42:28;;;;;;;9.95;3.72;;;14.10;99.90;;;;;;5116119;28;20484;-74
2021/12/30 09:44:54;;;;;;;13.00;4.00;;;14.10;99.90;;;;;;5117151;28;20084;-74
2021/12/30 09:47:20;;;;;;;13.70;3.88;;;14.10;99.90;;;;;;5116979;28;20032;-74
2021/12/30 09:49:50;;;;;;;9.05;3.30;;;14.20;99.90;;;;;;5099376;28;20030;-74
2021/12/30 09:52:16;;;;;;;13.25;3.03;;;14.20;99.90;;;;;;5117098;28;20095;-74
2021/12/30 09:54:42;;;;;;;7.85;2.90;;;14.20;99.90;;;;;;5116971;28;20027;-75
2021/12/30 09:57:07;;;;;;;12.65;3.55;;;14.20;99.90;;;;;;5115536;28;20031;-76
2021/12/30 09:59:34;;;;;;;12.20;3.03;;;14.30;99.90;;;;;;5099278;28;20028;-74
2021/12/30 10:01:59;;;;;;;10.52;2.80;;;14.30;99.90;;;;;;5115318;28;20352;-74
2021/12/30 10:04:33;;;;;;;9.43;3.20;;;14.40;99.90;;;;;;5115411;28;20024;-74
2021/12/30 10:07:00;;;;;;;;;;;14.40;99.90;;;;;;5117729;28;20468;-74
2021/12/30 10:09:45;;;;;;;12.32;2.55;;;14.40;99.90;;;;;;5115803;28;20271;-75
2021/12/30 10:12:12;;;;;;;10.73;4.38;;;14.50;99.90;;;;;;5116023;28;20020;-73
2021/12/30 10:14:39;;;;;;;13.18;3.58;;;14.50;99.90;;;;;;5115805;28;20060;-72
2021/12/30 10:17:23;;;;;;;9.90;3.08;;;14.50;99.90;;;;;;5114849;28;20039;-75
2021/12/30 10:19:53;;;;;;;19.83;5.70;;;14.60;99.90;;;;;;5112522;28;20032;-75
2021/12/30 10:22:22;;;;;;;17.48;3.20;;;14.70;99.90;;;;;;5113422;28;20055;-75
2021/12/30 10:24:49;;;;;;;14.25;3.22;;;14.70;99.90;;;;;;5106239;28;20031;-80
2021/12/30 10:27:32;;;;;;;13.65;3.10;;;14.60;99.90;;;;;;5104380;28;20020;-77
2021/12/30 10:29:58;;;;;;;13.03;2.80;;;14.60;99.90;;;;;;5115544;28;20110;-79
2021/12/30 10:32:27;;;;;;;13.50;2.13;;;14.60;99.90;;;;;;5108622;28;20357;-84
2021/12/30 10:35:13;;;;;;;11.30;2.40;;;14.60;99.90;;;;;;5111833;28;20114;-77
2021/12/30 10:37:44;;;;;;;18.40;3.55;;;14.60;99.90;;;;;;5102053;28;20054;-77
2021/12/30 10:40:31;;;;;;;11.15;2.83;;;14.60;99.90;;;;;;5116290;28;20020;-76
2021/12/30 10:43:20;;;;;;;12.77;3.33;;;14.50;99.90;;;;;;5115731;28;20034;-77
2021/12/30 10:46:11;;;;;;;17.83;4.18;;;14.50;99.90;;;;;;5114484;28;20024;-77
2021/12/30 10:48:56;;;;;;;10.65;3.90;;;14.60;99.90;;;;;;5108083;28;20031;-78
2021/12/30 10:51:36;;;;;;;13.45;3.85;;;14.60;99.90;;;;;;5116332;28;20111;-77
2021/12/30 10:54:09;;;;;;;20.67;3.95;;;14.60;99.90;;;;;;5115946;28;20024;-77
2021/12/30 10:56:37;;;;;;;13.20;4.50;;;14.60;99.90;;;;;;5116012;28;20131;-77
2021/12/30 10:59:13;;;;;;;15.65;4.53;;;14.60;99.90;;;;;;5114713;28;20063;-79
2021/12/30 11:01:41;;;;;;;13.30;4.85;;;14.60;99.90;;;;;;5114885;28;20042;-78
2021/12/30 11:04:08;;;;;;;15.52;4.88;;;14.70;99.90;;;;;;5115810;28;20031;-78
2021/12/30 11:06:34;;;;;;;14.02;4.28;;;14.70;99.90;;;;;;5115846;28;20027;-77
2021/12/30 11:09:09;;;;;;;10.32;4.03;;;14.70;99.90;;;;;;5114504;28;20039;-80
2021/12/30 11:11:35;;;;;;;14.10;3.75;;;14.70;99.90;;;;;;5114193;28;20077;-78
2021/12/30 11:14:06;;;;;;;13.80;3.50;;;14.70;99.90;;;;;;5115458;28;20574;-77
2021/12/30 11:16:50;;;;;;;9.82;3.13;;;14.70;99.90;;;;;;5114466;28;20528;-78
2021/12/30 11:19:17;;;;;;;12.65;3.33;;;14.70;99.90;;;;;;5115740;28;20106;-78
2021/12/30 11:21:44;;;;;;;13.90;3.45;;;14.70;99.90;;;;;;5114145;28;20099;-77
2021/12/30 11:24:11;;;;;;;9.18;3.13;;;14.70;99.90;;;;;;5115370;28;20032;-82
2021/12/30 11:26:39;;;;;;;12.80;3.17;;;14.60;99.90;;;;;;5115297;28;20092;-85
2021/12/30 11:29:06;;;;;;;16.38;3.60;;;14.70;99.80;;;;;;5115265;28;20403;-83
2021/12/30 11:31:32;;;;;;;14.00;3.00;;;14.70;99.70;;;;;;5113608;28;20023;-82
2021/12/30 11:33:59;;;;;;;13.30;3.28;;;14.60;99.70;;;;;;5114878;28;20404;-81
2021/12/30 11:36:29;;;;;;;11.48;3.30;;;14.70;99.60;;;;;;5113983;28;20078;-79
2021/12/30 11:39:02;;;;;;;16.45;3.15;;;14.60;99.70;;;;;;5113878;28;20020;-78
2021/12/30 11:41:29;;;;;;;11.77;2.60;;;14.70;99.70;;;;;;5115378;28;20059;-79
2021/12/30 11:43:55;;;;;;;11.32;2.42;;;14.70;99.80;;;;;;5115057;28;20118;-78
2021/12/30 11:46:45;;;;;;;13.00;2.58;;;14.70;99.80;;;;;;5114031;28;20424;-83
2021/12/30 11:49:14;;;;;;;13.30;3.03;;;14.70;99.90;;;;;;5114836;28;20015;-77
2021/12/30 11:51:51;;;;;;;14.23;2.63;;;14.70;99.90;;;;;;5113112;28;20027;-77
2021/12/30 11:54:36;;;;;;;15.45;2.97;;;14.70;99.90;;;;;;5114005;28;20106;-78
2021/12/30 11:57:34;;;;;;;16.77;3.08;;;14.70;99.90;;;;;;5114784;28;20027;-84
2021/12/30 12:00:32;;;;;;;13.15;2.80;;;14.70;99.90;;;;;;5114887;28;20111;-80
2021/12/30 12:03:02;;;;;;;13.32;2.63;;;14.70;99.90;;;;;;5113409;28;20051;-78
2021/12/30 12:05:43;;;;;;;14.77;3.45;;;14.70;99.90;;;;;;5114637;28;20547;-85
2021/12/30 12:08:12;;;;;;;12.80;2.42;;;14.70;99.90;;;;;;5115326;28;20077;-77
2021/12/30 12:10:39;;;;;;;14.77;3.50;;;14.70;99.80;;;;;;5113380;28;20146;-77
2021/12/30 12:13:30;;;;;;;12.00;2.60;;;14.70;99.70;;;;;;5114568;28;20020;-78
2021/12/30 12:15:59;;;;;;;12.80;2.53;;;14.70;99.90;;;;;;5114411;28;20023;-78
2021/12/30 12:18:26;;;;;;;12.93;3.10;;;14.70;99.70;;;;;;5114603;28;20126;-80
2021/12/30 12:20:53;;;;;;;16.02;3.17;;;14.70;99.60;;;;;;5113134;28;20027;-74
2021/12/30 12:23:37;;;;;;;11.38;3.15;;;14.70;99.60;;;;;;5113578;28;20050;-75
2021/12/30 12:26:15;;;;;;;15.13;3.10;;;14.70;99.60;;;;;;5114482;28;20055;-73
2021/12/30 12:28:42;;;;;;;10.50;2.80;;;14.70;99.50;;;;;;5112983;28;20051;-74
2021/12/30 12:31:10;;;;;;;9.48;2.50;;;14.70;99.60;;;;;;5112798;28;20046;-74
2021/12/30 12:33:38;;;;;;;14.68;2.65;;;14.70;99.60;;;;;;5113077;28;20047;-74